Time;durP1;ratioP1;P1;durP2;ratioP2;P2;SDS_P1;SDS_P2;PMS_P1;PMS_P2;Temp;Humidity;BMP_temperature;BMP_pressure;BME280_temperature;BME280_humidity;BME280_pressure;Samples;Min_cycle;Max_cycle;Signal;HPM_P1;HPM_P2
2022/04/05 00:01:37;;;;;;;5.10;3.40;;;;;;;5.50;100.00;99387.50;108387;1271;61468;-74
2022/04/05 00:04:04;;;;;;;6.80;4.40;;;;;;;5.50;100.00;99381.32;108446;1271;60694;-74
2022/04/05 00:06:33;;;;;;;5.60;3.30;;;;;;;5.50;100.00;99379.81;108449;1270;76766;-74
2022/04/05 00:09:03;;;;;;;3.80;2.50;;;;;;;5.50;100.00;99377.67;108445;1271;72624;-74
2022/04/05 00:11:30;;;;;;;8.60;4.70;;;;;;;5.51;100.00;99376.16;108400;1271;72731;-74
2022/04/05 00:13:57;;;;;;;6.40;4.30;;;;;;;5.53;100.00;99377.89;108443;1271;62500;-75
2022/04/05 00:16:24;;;;;;;3.80;2.60;;;;;;;5.55;100.00;99378.49;108359;1271;60334;-74
2022/04/05 00:18:51;;;;;;;5.50;3.30;;;;;;;5.58;100.00;99372.42;108348;1271;73327;-74
2022/04/05 00:21:17;;;;;;;5.20;3.30;;;;;;;5.61;100.00;99372.11;108490;1271;71360;-74
2022/04/05 00:23:44;;;;;;;7.40;4.10;;;;;;;5.62;100.00;99366.11;108450;1271;72965;-73
2022/04/05 00:26:11;;;;;;;5.60;2.30;;;;;;;5.63;100.00;99367.95;108452;1271;61423;-74
2022/04/05 00:28:45;;;;;;;5.70;3.20;;;;;;;5.64;100.00;99381.86;108404;1271;60564;-74
2022/04/05 00:31:12;;;;;;;3.70;2.20;;;;;;;5.65;100.00;99377.90;108460;1271;73976;-74
2022/04/05 00:33:39;;;;;;;2.90;2.20;;;;;;;5.65;100.00;99378.44;107634;1271;72412;-72
2022/04/05 00:36:12;;;;;;;6.30;3.40;;;;;;;5.65;100.00;99372.52;105528;1271;72902;-72
2022/04/05 00:38:44;;;;;;;5.10;3.30;;;;;;;5.64;100.00;99369.83;105770;1271;62523;-73
2022/04/05 00:41:11;;;;;;;4.70;2.70;;;;;;;5.61;100.00;99366.81;105682;1271;60443;-71
2022/04/05 00:43:40;;;;;;;5.80;3.90;;;;;;;5.59;100.00;99366.50;105555;1271;75919;-72
2022/04/05 00:46:15;;;;;;;4.60;2.70;;;;;;;5.57;100.00;99367.05;105565;1274;71352;-72
2022/04/05 00:48:53;;;;;;;5.80;3.50;;;;;;;5.55;100.00;99369.90;105476;1274;73954;-73
2022/04/05 00:51:20;;;;;;;3.20;2.10;;;;;;;5.54;100.00;99373.80;105701;1271;61254;-71
2022/04/05 00:54:09;;;;;;;4.10;3.10;;;;;;;5.52;100.00;99379.89;105595;1271;60619;-72
2022/04/05 00:56:36;;;;;;;6.70;3.30;;;;;;;5.51;100.00;99372.64;105660;1271;75176;-72
2022/04/05 00:59:15;;;;;;;5.30;3.40;;;;;;;5.49;100.00;99374.42;105666;1271;71413;-72
2022/04/05 01:01:44;;;;;;;5.60;2.90;;;;;;;5.46;100.00;99376.88;105607;1271;74015;-72
2022/04/05 01:04:34;;;;;;;4.50;2.30;;;;;;;5.44;100.00;99369.30;105503;1272;60570;-72
2022/04/05 01:07:08;;;;;;;4.40;2.60;;;;;;;5.41;100.00;99371.05;108005;1271;60390;-72
2022/04/05 01:09:45;;;;;;;5.50;3.20;;;;;;;5.39;100.00;99370.38;108394;1274;75192;-73
2022/04/05 01:13:15;;;;;;;4.40;2.30;;;;;;;5.38;100.00;99377.38;108471;1271;71550;-74
2022/04/05 01:15:45;;;;;;;2.80;1.30;;;;;;;5.37;100.00;99367.47;108225;1271;75033;-73
2022/04/05 01:18:34;;;;;;;6.30;2.80;;;;;;;5.36;100.00;99373.56;106560;1271;61519;-73
2022/04/05 01:21:15;;;;;;;;;;;;;;;;;;;;;
2022/04/05 01:24:17;;;;;;;4.00;2.60;;;;;;;5.32;100.00;99371.83;108517;1271;75676;-73
2022/04/05 01:27:07;;;;;;;;;;;;;;;;;;;;;
2022/04/05 01:29:48;;;;;;;3.80;2.10;;;;;;;5.30;100.00;99373.10;108435;1271;73988;-72
2022/04/05 01:32:34;;;;;;;;;;;;;;;;;;;;;
2022/04/05 01:35:01;;;;;;;3.40;2.00;;;;;;;5.28;100.00;99376.33;108385;1271;60682;-73
2022/04/05 01:37:48;;;;;;;2.40;1.40;;;;;;;5.27;100.00;99371.70;108515;1271;74087;-73
2022/04/05 01:41:06;;;;;;;;;;;;;;;;;;;;;
2022/04/05 01:43:44;;;;;;;3.00;1.50;;;;;;;5.23;100.00;99370.98;108299;1271;73128;-74
2022/04/05 01:46:35;;;;;;;2.10;1.20;;;;;;;5.22;100.00;99374.55;108423;1271;62409;-74
2022/04/05 01:49:27;;;;;;;3.40;2.00;;;;;;;5.18;100.00;99376.38;108426;1271;60285;-73
2022/04/05 01:52:35;;;;;;;1.90;1.10;;;;;;;5.16;100.00;99373.40;105626;1271;74229;-73
2022/04/05 01:55:15;;;;;;;3.90;1.60;;;;;;;5.17;100.00;99368.98;108287;1271;70051;-74
2022/04/05 01:57:45;;;;;;;1.70;1.10;;;;;;;5.16;100.00;99372.24;108459;1271;72908;-73
2022/04/05 02:00:24;;;;;;;3.50;1.50;;;;;;;5.15;100.00;99378.98;108085;1271;60181;-73
2022/04/05 02:02:50;;;;;;;1.30;0.80;;;;;;;5.15;100.00;99378.30;105502;1271;60764;-72
2022/04/05 02:05:17;;;;;;;3.40;1.30;;;;;;;5.16;100.00;99376.13;106766;1271;73849;-72
2022/04/05 02:07:55;;;;;;;1.50;0.80;;;;;;;5.16;100.00;99378.39;108450;1271;70979;-72
2022/04/05 02:10:24;;;;;;;1.70;1.00;;;;;;;5.16;100.00;99375.89;108475;1271;73746;-72
2022/04/05 02:13:17;;;;;;;1.80;1.10;;;;;;;5.16;100.00;99379.90;108452;1271;61694;-72
2022/04/05 02:16:12;;;;;;;2.70;1.10;;;;;;;5.17;100.00;99377.94;105477;1271;60583;-72
2022/04/05 02:18:47;;;;;;;1.90;1.10;;;;;;;5.18;100.00;99380.75;105598;1271;73968;-72
2022/04/05 02:21:24;;;;;;;;;;;;;;;;;;;;;
2022/04/05 02:24:14;;;;;;;2.50;1.40;;;;;;;5.20;100.00;99389.25;108410;1271;71673;-73
2022/04/05 02:26:41;;;;;;;2.80;1.00;;;;;;;5.21;100.00;99385.46;108453;1271;61182;-74
2022/04/05 02:29:09;;;;;;;3.30;1.10;;;;;;;5.21;100.00;99387.58;106193;1272;60378;-72
2022/04/05 02:31:39;;;;;;;1.70;1.00;;;;;;;5.23;100.00;99386.21;105642;1271;74051;-73
2022/04/05 02:34:31;;;;;;;2.10;1.30;;;;;;;5.22;100.00;99393.25;105656;1271;71499;-73
2022/04/05 02:37:09;;;;;;;2.40;1.10;;;;;;;5.23;100.00;99399.66;108312;1271;72938;-73
2022/04/05 02:40:07;;;;;;;;;;;;;;;;;;;;;
2022/04/05 02:42:39;;;;;;;2.60;1.20;;;;;;;5.24;100.00;99396.68;108454;1271;60631;-73
2022/04/05 02:45:09;;;;;;;2.50;1.50;;;;;;;5.25;100.00;99398.89;108487;1271;74130;-73
2022/04/05 02:47:40;;;;;;;2.10;1.20;;;;;;;5.25;100.00;99409.38;108443;1271;72413;-74
2022/04/05 02:50:18;;;;;;;;;;;;;;;;;;;;;
2022/04/05 02:52:45;;;;;;;3.10;1.70;;;;;;;5.28;100.00;99403.11;108011;1271;519166;-75
2022/04/05 02:55:15;;;;;;;2.80;1.60;;;;;;;5.29;100.00;99410.17;108350;1271;60676;-75
2022/04/05 02:57:47;;;;;;;2.40;1.20;;;;;;;5.29;100.00;99412.44;108365;1271;75196;-74
2022/04/05 03:00:17;;;;;;;2.00;1.20;;;;;;;5.30;100.00;99416.90;108467;1271;71625;-75
2022/04/05 03:02:45;;;;;;;3.90;2.10;;;;;;;5.31;100.00;99416.24;108434;1271;72014;-75
2022/04/05 03:05:39;;;;;;;4.50;1.90;;;;;;;5.33;100.00;99419.27;108501;1271;59924;-75
2022/04/05 03:08:06;;;;;;;3.40;1.70;;;;;;;5.32;100.00;99426.53;108364;1271;59522;-75
2022/04/05 03:11:35;;;;;;;2.00;1.10;;;;;;;5.32;100.00;99429.00;105962;1274;75094;-77
2022/04/05 03:14:12;;;;;;;2.40;1.40;;;;;;;5.33;100.00;99431.48;106818;1271;71684;-74
2022/04/05 03:17:00;;;;;;;2.60;1.10;;;;;;;5.34;100.00;99431.59;105740;1271;73540;-73
2022/04/05 03:19:27;;;;;;;3.00;1.40;;;;;;;5.35;100.00;99436.05;108467;1271;60177;-74
2022/04/05 03:21:56;;;;;;;1.80;1.10;;;;;;;5.34;100.00;99434.21;108347;1271;61420;-74
2022/04/05 03:24:39;;;;;;;1.60;0.90;;;;;;;5.33;100.00;99438.75;108452;1271;75705;-74
2022/04/05 03:27:11;;;;;;;7.00;2.10;;;;;;;5.31;100.00;99442.77;107745;1271;72628;-78
2022/04/05 03:29:41;;;;;;;4.10;1.70;;;;;;;5.29;100.00;99444.52;105665;1271;73005;-76
2022/04/05 03:32:32;;;;;;;3.60;1.40;;;;;;;5.29;100.00;99443.34;105798;1271;61303;-76
2022/04/05 03:35:39;;;;;;;2.80;1.40;;;;;;;5.29;100.00;99445.27;106866;1272;61588;-75
2022/04/05 03:38:34;;;;;;;5.10;2.20;;;;;;;5.28;100.00;99445.91;105629;1271;74114;-74
2022/04/05 03:41:49;;;;;;;3.80;2.10;;;;;;;5.29;100.00;99452.30;105656;1271;72699;-74
2022/04/05 03:45:08;;;;;;;4.00;1.10;;;;;;;5.28;100.00;99451.13;105560;1271;71944;-74
2022/04/05 03:47:36;;;;;;;4.10;1.40;;;;;;;5.27;100.00;99446.14;108404;1271;61202;-75
2022/04/05 03:50:06;;;;;;;4.80;1.80;;;;;;;5.26;100.00;99451.20;108312;1274;62191;-75
2022/04/05 03:52:59;;;;;;;2.90;1.40;;;;;;;5.25;100.00;99451.11;108496;1271;74198;-75
2022/04/05 03:55:29;;;;;;;2.70;1.70;;;;;;;5.25;100.00;99458.88;108448;1271;72311;-75
2022/04/05 03:57:56;;;;;;;3.30;1.00;;;;;;;5.23;100.00;99459.27;108510;1271;74523;-74
2022/04/05 04:01:24;;;;;;;2.90;1.90;;;;;;;5.23;100.00;99455.59;107450;1274;62642;-73
2022/04/05 04:03:50;;;;;;;6.10;1.80;;;;;;;5.22;100.00;99463.19;108294;1271;60631;-74
2022/04/05 04:06:35;;;;;;;;;;;;;;;;;;;;;
2022/04/05 04:09:08;;;;;;;3.80;2.00;;;;;;;5.22;100.00;99463.91;108457;1271;72181;-71
2022/04/05 04:11:34;;;;;;;2.80;1.20;;;;;;;5.21;100.00;99472.27;108554;1269;73216;-70
2022/04/05 04:14:04;;;;;;;5.20;2.10;;;;;;;5.21;100.00;99478.05;108455;1270;61618;-70
2022/04/05 04:16:31;;;;;;;3.00;1.50;;;;;;;5.21;100.00;99480.17;108510;1270;60564;-70
2022/04/05 04:18:58;;;;;;;7.10;2.40;;;;;;;5.19;100.00;99482.95;108505;1270;72678;-70
2022/04/05 04:21:25;;;;;;;12.50;2.80;;;;;;;5.19;100.00;99483.02;108373;1269;145433;-74
2022/04/05 04:23:52;;;;;;;6.10;2.40;;;;;;;5.17;100.00;99479.92;105797;1274;75037;-73
2022/04/05 04:26:21;;;;;;;7.90;2.60;;;;;;;5.19;100.00;99492.15;105227;1274;62206;-74
2022/04/05 04:29:10;;;;;;;5.10;1.80;;;;;;;5.19;100.00;99490.91;105500;1273;60989;-75
2022/04/05 04:31:37;;;;;;;3.20;1.80;;;;;;;5.18;100.00;99489.91;105309;1274;74164;-74
2022/04/05 04:34:17;;;;;;;;;;;;;;;;;;;;;
2022/04/05 04:36:57;;;;;;;;;;;;;;;;;;;;;
2022/04/05 04:39:32;;;;;;;14.50;2.70;;;;;;;5.15;100.00;99507.67;105401;1274;61531;-74
2022/04/05 04:42:00;;;;;;;8.10;2.50;;;;;;;5.13;100.00;99504.85;105467;1274;61451;-76
2022/04/05 04:44:35;;;;;;;5.30;1.60;;;;;;;5.12;100.00;99504.77;105852;1274;76156;-74
2022/04/05 04:47:22;;;;;;;9.80;2.20;;;;;;;5.10;100.00;99505.52;105430;1273;72333;-75
2022/04/05 04:49:57;;;;;;;9.90;2.10;;;;;;;5.09;100.00;99513.38;105392;1273;74236;-72
2022/04/05 04:52:24;;;;;;;11.20;3.20;;;;;;;5.06;100.00;99517.36;105320;1273;61426;-75
2022/04/05 04:55:33;;;;;;;;;;;;;;;;;;;;;
2022/04/05 04:58:20;;;;;;;11.30;2.30;;;;;;;5.05;100.00;99517.13;105369;1273;76136;-70
2022/04/05 05:00:48;;;;;;;7.20;2.10;;;;;;;5.05;100.00;99515.09;105331;1274;71458;-69
2022/04/05 05:03:23;;;;;;;8.20;1.90;;;;;;;5.05;100.00;99522.39;105371;1274;73965;-69
2022/04/05 05:05:51;;;;;;;6.40;1.90;;;;;;;5.06;100.00;99527.19;105018;1274;61685;-69
2022/04/05 05:08:18;;;;;;;5.50;2.00;;;;;;;5.06;100.00;99531.59;105315;1273;61336;-68
2022/04/05 05:10:44;;;;;;;3.50;1.20;;;;;;;5.05;100.00;99539.70;105316;1273;74968;-67
2022/04/05 05:13:11;;;;;;;7.10;1.60;;;;;;;5.05;100.00;99543.77;105343;1273;72188;-68
2022/04/05 05:15:45;;;;;;;8.60;2.10;;;;;;;5.03;100.00;99542.36;105329;1273;60561;-68
2022/04/05 05:18:11;;;;;;;10.90;2.50;;;;;;;5.05;100.00;99548.50;105226;1272;60537;-69
2022/04/05 05:20:38;;;;;;;8.00;2.60;;;;;;;5.06;100.00;99551.61;105282;1273;60539;-71
2022/04/05 05:23:05;;;;;;;12.30;3.20;;;;;;;5.05;100.00;99562.14;105176;1273;75677;-70
2022/04/05 05:26:15;;;;;;;11.10;3.20;;;;;;;5.05;100.00;99563.39;105208;1273;70354;-68
2022/04/05 05:28:42;;;;;;;14.10;2.80;;;;;;;5.05;100.00;99573.06;105121;1274;74000;-70
2022/04/05 05:31:21;;;;;;;6.20;2.10;;;;;;;5.03;100.00;99568.48;105223;1273;62310;-67
2022/04/05 05:33:48;;;;;;;5.40;1.70;;;;;;;5.04;100.00;99573.02;105332;1273;60650;-68
2022/04/05 05:36:18;;;;;;;1.90;1.20;;;;;;;5.03;100.00;99581.86;105417;1273;75479;-67
2022/04/05 05:38:44;;;;;;;5.60;1.20;;;;;;;5.03;100.00;99584.62;105231;1273;73357;-69
2022/04/05 05:41:20;;;;;;;4.80;1.20;;;;;;;5.03;100.00;99589.09;105210;1273;60315;-70
2022/04/05 05:43:50;;;;;;;4.90;1.30;;;;;;;5.02;99.99;99604.88;105047;1273;61255;-69
2022/04/05 05:46:17;;;;;;;10.20;1.90;;;;;;;5.04;99.67;99602.98;105698;1273;60345;-69
2022/04/05 05:48:46;;;;;;;4.10;1.80;;;;;;;5.04;99.77;99600.98;105114;1273;75180;-69
2022/04/05 05:51:18;;;;;;;9.00;2.10;;;;;;;5.04;99.09;99603.94;105227;1273;71422;-67
2022/04/05 05:53:45;;;;;;;10.50;1.60;;;;;;;5.06;99.11;99605.00;105045;1273;74054;-70
2022/04/05 05:56:14;;;;;;;7.60;1.90;;;;;;;5.07;99.01;99605.21;105257;1273;61919;-69
2022/04/05 05:58:41;;;;;;;9.60;1.70;;;;;;;5.08;98.57;99612.84;106169;1273;60395;-70
2022/04/05 06:01:16;;;;;;;10.40;2.00;;;;;;;5.08;98.01;99616.00;108389;1273;59791;-71
2022/04/05 06:03:43;;;;;;;9.60;1.70;;;;;;;5.08;98.03;99625.59;108428;1273;72458;-72
2022/04/05 06:06:16;;;;;;;6.70;2.10;;;;;;;5.09;97.48;99630.81;108484;1272;73259;-72
2022/04/05 06:08:43;;;;;;;10.80;2.00;;;;;;;5.09;97.08;99632.69;105999;1273;62347;-70
2022/04/05 06:11:13;;;;;;;3.20;1.00;;;;;;;5.10;96.83;99630.65;105358;1273;60900;-69
2022/04/05 06:13:40;;;;;;;9.60;1.50;;;;;;;5.11;96.52;99638.23;105381;1273;74126;-70
2022/04/05 06:16:23;;;;;;;7.80;1.50;;;;;;;5.12;95.65;99641.48;105316;1273;71408;-72
2022/04/05 06:18:50;;;;;;;13.30;2.20;;;;;;;5.11;95.00;99643.75;105295;1273;72000;-72
2022/04/05 06:21:19;;;;;;;7.00;1.20;;;;;;;5.13;94.03;99651.61;106076;1273;62204;-73
2022/04/05 06:23:46;;;;;;;8.30;1.50;;;;;;;5.13;93.42;99654.43;105518;1273;60510;-72
2022/04/05 06:26:14;;;;;;;8.50;2.00;;;;;;;5.15;94.21;99652.23;105406;1273;74209;-71
2022/04/05 06:28:43;;;;;;;9.60;1.80;;;;;;;5.16;93.48;99658.96;105408;1273;72676;-71
2022/04/05 06:31:16;;;;;;;7.90;1.40;;;;;;;5.18;93.49;99655.28;105407;1273;73632;-72
2022/04/05 06:33:43;;;;;;;5.50;1.30;;;;;;;5.20;93.00;99658.56;105268;1274;62679;-71
2022/04/05 06:36:19;;;;;;;6.20;1.50;;;;;;;5.22;92.10;99660.73;105175;1274;64052;-72
2022/04/05 06:38:45;;;;;;;11.70;1.90;;;;;;;5.24;91.36;99663.30;105390;1273;75172;-71
2022/04/05 06:41:20;;;;;;;10.50;1.80;;;;;;;5.26;91.52;99662.58;107584;1273;71809;-72
2022/04/05 06:43:47;;;;;;;14.60;1.80;;;;;;;5.28;91.42;99669.35;108399;1273;74138;-72
2022/04/05 06:46:17;;;;;;;7.00;1.70;;;;;;;5.31;90.85;99668.55;108441;1273;61283;-72
2022/04/05 06:48:43;;;;;;;13.90;1.70;;;;;;;5.34;91.32;99668.59;108416;1273;61721;-72
2022/04/05 06:51:12;;;;;;;8.30;1.40;;;;;;;5.38;91.51;99670.66;108396;1271;74046;-73
2022/04/05 06:53:44;;;;;;;6.80;1.60;;;;;;;5.40;90.69;99673.92;108448;1273;71523;-74
2022/04/05 06:56:19;;;;;;;6.50;1.10;;;;;;;5.43;90.10;99676.22;108357;1273;74282;-73
2022/04/05 06:58:45;;;;;;;6.00;1.20;;;;;;;5.47;90.43;99675.59;108491;1273;61461;-74
2022/04/05 07:01:15;;;;;;;9.70;1.80;;;;;;;5.50;90.56;99675.40;106855;1273;59373;-72
2022/04/05 07:03:42;;;;;;;11.20;1.70;;;;;;;5.54;90.42;99677.70;105420;1273;75522;-72
2022/04/05 07:06:18;;;;;;;6.70;1.80;;;;;;;5.57;90.58;99674.00;105336;1273;70795;-70
2022/04/05 07:08:44;;;;;;;4.60;1.30;;;;;;;5.59;90.28;99675.15;105344;1273;73167;-69
2022/04/05 07:11:14;;;;;;;14.50;2.60;;;;;;;5.62;90.47;99673.64;105442;1273;62910;-73
2022/04/05 07:13:41;;;;;;;5.50;1.40;;;;;;;5.65;90.36;99671.20;105496;1273;60835;-70
2022/04/05 07:16:19;;;;;;;12.60;2.10;;;;;;;5.66;90.68;99670.16;105494;1273;74124;-70
2022/04/05 07:18:46;;;;;;;10.30;1.30;;;;;;;5.70;91.23;99665.02;105449;1273;72203;-70
2022/04/05 07:21:18;;;;;;;9.70;1.50;;;;;;;5.75;91.32;99665.38;105390;1273;74093;-70
2022/04/05 07:23:46;;;;;;;6.80;2.30;;;;;;;5.79;91.25;99665.63;105319;1273;61174;-71
2022/04/05 07:26:16;;;;;;;8.40;1.50;;;;;;;5.85;91.31;99666.92;105363;1273;60952;-71
2022/04/05 07:28:44;;;;;;;7.10;1.70;;;;;;;5.90;91.37;99663.48;105390;1273;74219;-69
2022/04/05 07:31:16;;;;;;;7.00;2.40;;;;;;;5.97;91.89;99664.70;105338;1273;71191;-70
2022/04/05 07:33:43;;;;;;;7.20;1.70;;;;;;;6.05;90.92;99668.17;107417;1273;72149;-71
2022/04/05 07:36:15;;;;;;;8.40;1.60;;;;;;;6.17;90.76;99668.81;108391;1273;58472;-71
2022/04/05 07:38:42;;;;;;;5.90;1.80;;;;;;;6.33;90.81;99661.58;108326;1273;60113;-71
2022/04/05 07:41:14;;;;;;;7.70;1.40;;;;;;;6.44;88.21;99670.48;108421;1271;74116;-71
2022/04/05 07:43:41;;;;;;;7.90;1.20;;;;;;;6.55;86.15;99666.86;108402;1273;72392;-71
2022/04/05 07:46:17;;;;;;;9.60;2.30;;;;;;;6.66;86.09;99656.45;108353;1272;72639;-73
2022/04/05 07:48:46;;;;;;;8.00;1.70;;;;;;;6.78;84.60;99661.80;108469;1273;61156;-72
2022/04/05 07:51:17;;;;;;;7.30;1.70;;;;;;;6.85;83.46;99661.34;108460;1273;59924;-72
2022/04/05 07:53:44;;;;;;;8.90;1.90;;;;;;;6.89;82.82;99667.98;108285;1274;77889;-70
2022/04/05 07:56:17;;;;;;;6.50;1.40;;;;;;;6.93;82.26;99662.64;105162;1273;74323;-69
2022/04/05 07:58:47;;;;;;;7.20;1.20;;;;;;;6.98;82.64;99659.85;107567;1273;73039;-72
2022/04/05 08:01:17;;;;;;;8.40;1.40;;;;;;;7.01;81.77;99665.30;108409;1273;62267;-73
2022/04/05 08:03:44;;;;;;;4.40;1.50;;;;;;;7.03;80.41;99670.52;107968;1272;60451;-72
2022/04/05 08:06:16;;;;;;;7.30;1.30;;;;;;;7.05;80.30;99671.33;108456;1273;74091;-73
2022/04/05 08:08:43;;;;;;;4.10;0.80;;;;;;;7.02;79.23;99675.86;108391;1271;72349;-72
2022/04/05 08:11:24;;;;;;;6.60;1.20;;;;;;;6.99;78.44;99668.91;108443;1273;73062;-72
2022/04/05 08:13:51;;;;;;;7.70;1.20;;;;;;;7.05;79.54;99667.42;107774;1273;61504;-70
2022/04/05 08:16:25;;;;;;;2.90;1.10;;;;;;;7.15;79.57;99665.56;108442;1273;60542;-69
2022/04/05 08:18:52;;;;;;;8.00;1.80;;;;;;;7.16;78.03;99667.57;108421;1272;75169;-71
2022/04/05 08:21:19;;;;;;;3.60;1.00;;;;;;;7.14;78.61;99664.80;108316;1272;71240;-71
2022/04/05 08:23:50;;;;;;;5.30;1.10;;;;;;;7.12;78.71;99672.06;108435;1271;74404;-78
2022/04/05 08:26:17;;;;;;;6.30;1.70;;;;;;;7.13;79.00;99664.12;106957;1273;60675;-80
2022/04/05 08:28:55;;;;;;;9.90;1.60;;;;;;;7.12;78.71;99669.80;105929;1273;60878;-69
2022/04/05 08:31:23;;;;;;;7.00;1.80;;;;;;;7.12;79.98;99675.46;108459;1273;73838;-70
2022/04/05 08:33:50;;;;;;;9.50;1.30;;;;;;;7.12;79.89;99676.60;108422;1272;70860;-72
2022/04/05 08:36:17;;;;;;;5.90;1.80;;;;;;;7.12;80.13;99678.88;108447;1273;74224;-73
2022/04/05 08:38:44;;;;;;;6.10;1.60;;;;;;;7.11;79.32;99677.93;106900;1272;62499;-70
2022/04/05 08:41:19;;;;;;;7.70;1.80;;;;;;;7.12;79.66;99681.16;105500;1273;60373;-72
2022/04/05 08:43:49;;;;;;;7.90;1.90;;;;;;;7.14;79.39;99677.77;108427;1273;75342;-72
2022/04/05 08:46:21;;;;;;;4.60;1.70;;;;;;;7.20;79.55;99675.88;108154;1273;72432;-72
2022/04/05 08:48:50;;;;;;;5.80;1.80;;;;;;;7.30;79.11;99686.02;108442;1273;73245;-72
2022/04/05 08:51:17;;;;;;;4.00;1.40;;;;;;;7.43;78.83;99684.54;106879;1273;62558;-71
2022/04/05 08:53:43;;;;;;;9.50;1.60;;;;;;;7.50;77.49;99689.89;105407;1273;61217;-71
2022/04/05 08:56:16;;;;;;;3.70;1.50;;;;;;;7.51;77.89;99685.30;105392;1273;61300;-70
2022/04/05 08:58:42;;;;;;;7.70;1.30;;;;;;;7.57;78.51;99685.30;105451;1273;71385;-70
2022/04/05 09:01:15;;;;;;;14.60;2.40;;;;;;;7.59;78.32;99689.11;105428;1273;61382;-71
2022/04/05 09:03:42;;;;;;;5.70;2.10;;;;;;;7.61;78.08;99681.86;105458;1272;61430;-69
2022/04/05 09:06:30;;;;;;;6.90;1.30;;;;;;;7.64;79.28;99679.20;105350;1273;61891;-71
2022/04/05 09:09:17;;;;;;;9.90;1.80;;;;;;;7.66;79.69;99684.74;105728;1273;74784;-69
2022/04/05 09:11:48;;;;;;;7.30;1.40;;;;;;;7.70;79.93;99678.71;105340;1273;71504;-69
2022/04/05 09:14:24;;;;;;;1.80;0.70;;;;;;;7.69;80.15;99681.21;105409;1273;71914;-71
2022/04/05 09:17:08;;;;;;;8.10;1.90;;;;;;;7.66;80.07;99680.70;108425;1271;61620;-73
2022/04/05 09:19:48;;;;;;;10.90;2.00;;;;;;;7.68;80.67;99678.20;105440;1273;61231;-69
2022/04/05 09:22:32;;;;;;;5.80;1.50;;;;;;;7.71;80.73;99679.66;105344;1273;74010;-71
2022/04/05 09:25:20;;;;;;;11.40;1.80;;;;;;;7.73;80.59;99678.80;105243;1273;73691;-71
2022/04/05 09:27:50;;;;;;;10.30;2.00;;;;;;;7.73;81.02;99679.00;105333;1273;72727;-71
2022/04/05 09:30:27;;;;;;;5.20;1.60;;;;;;;7.70;80.34;99680.65;108407;1273;61255;-71
2022/04/05 09:32:55;;;;;;;8.00;1.80;;;;;;;7.62;80.40;99678.06;108463;1272;60367;-71
2022/04/05 09:35:27;;;;;;;4.20;1.40;;;;;;;7.58;80.66;99682.79;106881;1274;76151;-69
2022/04/05 09:38:20;;;;;;;7.80;1.80;;;;;;;7.54;80.93;99677.19;105838;1272;72395;-72
2022/04/05 09:40:52;;;;;;;8.10;2.00;;;;;;;7.60;81.80;99673.92;105373;1273;73069;-71
2022/04/05 09:43:32;;;;;;;8.90;1.80;;;;;;;7.66;81.75;99673.70;105316;1273;61893;-70
2022/04/05 09:46:04;;;;;;;6.10;1.80;;;;;;;7.78;81.41;99670.58;105707;1273;61282;-68
2022/04/05 09:48:37;;;;;;;3.20;1.00;;;;;;;7.91;81.13;99672.38;105272;1273;74805;-68
2022/04/05 09:51:17;;;;;;;7.10;1.80;;;;;;;7.97;80.57;99675.64;105355;1273;71198;-70
2022/04/05 09:53:55;;;;;;;6.60;2.10;;;;;;;8.00;80.65;99674.58;105242;1273;74156;-68
2022/04/05 09:56:28;;;;;;;14.80;2.60;;;;;;;8.00;80.42;99672.46;105481;1273;61500;-73
2022/04/05 09:59:04;;;;;;;3.90;1.20;;;;;;;8.04;80.62;99668.20;105644;1273;62774;-71
2022/04/05 10:01:35;;;;;;;6.90;1.70;;;;;;;8.11;80.95;99664.35;105659;1273;75222;-70
2022/04/05 10:04:10;;;;;;;4.30;1.30;;;;;;;8.23;81.10;99666.04;105849;1273;71588;-72
2022/04/05 10:06:43;;;;;;;3.30;1.30;;;;;;;8.26;80.40;99666.60;107922;1272;72837;-71
2022/04/05 10:09:11;;;;;;;12.00;3.30;;;;;;;8.27;80.26;99668.91;105409;1273;62941;-70
2022/04/05 10:11:40;;;;;;;5.70;1.10;;;;;;;8.20;79.63;99665.20;105253;1273;61277;-69
2022/04/05 10:14:09;;;;;;;6.70;1.70;;;;;;;8.12;79.91;99663.27;105328;1273;75963;-70
2022/04/05 10:16:40;;;;;;;7.40;2.60;;;;;;;8.03;80.35;99665.23;108420;1273;72916;-72
2022/04/05 10:19:10;;;;;;;5.10;1.50;;;;;;;7.99;81.15;99664.53;105911;1273;74378;-69
2022/04/05 10:21:39;;;;;;;7.10;1.70;;;;;;;8.01;82.04;99667.77;105390;1274;61312;-69
2022/04/05 10:24:07;;;;;;;4.50;1.20;;;;;;;8.08;81.61;99665.75;105505;1273;61873;-71
2022/04/05 10:26:39;;;;;;;4.10;1.10;;;;;;;8.09;81.00;99662.98;105385;1273;75068;-70
2022/04/05 10:29:15;;;;;;;4.10;1.80;;;;;;;8.09;81.44;99662.55;105405;1273;72112;-68
2022/04/05 10:31:42;;;;;;;5.50;1.60;;;;;;;8.06;81.66;99657.14;105684;1273;71973;-72
2022/04/05 10:34:30;;;;;;;4.40;1.50;;;;;;;8.08;82.04;99657.29;105353;1272;62036;-73
2022/04/05 10:37:04;;;;;;;6.30;1.80;;;;;;;8.09;82.05;99656.23;105453;1273;61245;-70
2022/04/05 10:39:41;;;;;;;9.30;2.50;;;;;;;8.04;81.60;99650.69;105465;1273;76611;-71
2022/04/05 10:42:21;;;;;;;11.00;2.60;;;;;;;7.98;82.00;99650.77;105347;1272;72269;-71
2022/04/05 10:45:09;;;;;;;7.30;2.70;;;;;;;7.89;82.57;99650.91;105822;1273;73034;-73
2022/04/05 10:48:03;;;;;;;6.30;1.80;;;;;;;7.79;83.38;99652.61;105374;1273;61482;-70
2022/04/05 10:51:00;;;;;;;8.20;2.20;;;;;;;7.71;84.75;99652.05;105393;1273;61122;-71
2022/04/05 10:53:34;;;;;;;7.90;2.80;;;;;;;7.66;85.74;99653.61;105462;1273;77480;-71
2022/04/05 10:56:05;;;;;;;4.30;1.40;;;;;;;7.59;86.53;99654.96;105420;1273;71403;-73
2022/04/05 10:58:52;;;;;;;6.00;2.00;;;;;;;7.50;87.47;99653.08;106099;1273;73064;-72
2022/04/05 11:01:48;;;;;;;7.10;2.40;;;;;;;7.43;88.36;99646.65;105318;1273;61230;-70
2022/04/05 11:04:31;;;;;;;11.80;2.40;;;;;;;7.37;89.23;99646.84;105188;1273;61447;-74
2022/04/05 11:10:39;;;;;;;4.20;2.00;;;;;;;7.30;90.95;99647.14;105383;1273;70208;-72
2022/04/05 11:13:18;;;;;;;4.60;1.80;;;;;;;7.30;91.73;99648.20;105523;1273;74179;-74
2022/04/05 11:16:18;;;;;;;6.70;3.10;;;;;;;7.27;91.95;99647.59;105419;1273;62420;-74
2022/04/05 11:18:57;;;;;;;9.50;3.40;;;;;;;7.25;93.13;99647.02;105283;1273;61236;-74
2022/04/05 11:21:26;;;;;;;4.80;2.20;;;;;;;7.19;94.00;99645.79;105850;1273;72694;-71
2022/04/05 11:23:53;;;;;;;8.90;3.60;;;;;;;7.13;94.65;99650.86;105356;1273;70839;-69
2022/04/05 11:26:33;;;;;;;8.40;3.20;;;;;;;7.09;95.70;99652.77;106074;1273;71587;-69
2022/04/05 11:29:21;;;;;;;9.70;3.20;;;;;;;7.04;96.44;99655.41;105301;1273;61338;-72
2022/04/05 11:32:10;;;;;;;7.50;3.00;;;;;;;7.02;97.12;99655.13;105332;1273;61137;-68
2022/04/05 11:34:46;;;;;;;4.80;2.30;;;;;;;7.04;97.48;99655.16;107568;1273;74229;-70
2022/04/05 11:37:12;;;;;;;7.70;3.10;;;;;;;7.09;98.13;99647.88;105565;1273;72190;-69
2022/04/05 11:39:41;;;;;;;8.70;3.20;;;;;;;7.26;98.34;99642.33;105284;1273;72801;-71
2022/04/05 11:42:08;;;;;;;7.50;3.70;;;;;;;7.53;98.49;99642.85;105642;1273;62442;-69
2022/04/05 11:44:38;;;;;;;5.60;2.30;;;;;;;7.69;98.25;99644.59;105355;1273;61269;-71
2022/04/05 11:47:06;;;;;;;5.90;3.30;;;;;;;7.80;96.98;99644.85;105305;1272;75947;-70
2022/04/05 11:49:42;;;;;;;9.70;3.30;;;;;;;7.85;95.65;99640.54;108257;1272;71593;-72
2022/04/05 11:52:10;;;;;;;6.50;3.90;;;;;;;7.87;95.08;99641.46;108456;1272;73991;-71
2022/04/05 11:56:00;;;;;;;7.30;3.00;;;;;;;7.94;95.30;99642.19;108415;1271;60744;-70
2022/04/05 11:57:24;;;;;;;8.40;4.30;;;;;;;8.08;94.30;99633.96;108467;1273;59819;-71
2022/04/05 12:00:08;;;;;;;9.80;4.30;;;;;;;8.17;94.09;99633.13;108481;1273;75121;-71
2022/04/05 12:02:35;;;;;;;9.80;3.90;;;;;;;8.17;93.88;99634.36;108475;1272;71401;-71
2022/04/05 12:05:02;;;;;;;4.60;2.60;;;;;;;8.15;93.31;99632.63;108407;1273;72949;-71
2022/04/05 12:07:33;;;;;;;7.60;3.20;;;;;;;8.14;94.12;99631.23;108473;1273;62145;-69
2022/04/05 12:10:00;;;;;;;9.60;4.40;;;;;;;8.08;93.74;99630.02;108438;1273;61684;-71
2022/04/05 12:12:27;;;;;;;10.50;4.10;;;;;;;8.00;93.83;99619.56;108378;1273;75002;-71
2022/04/05 12:14:54;;;;;;;6.30;2.50;;;;;;;7.93;94.09;99612.20;108439;1272;72553;-71
2022/04/05 12:17:24;;;;;;;4.30;2.80;;;;;;;7.84;94.31;99620.57;107102;1273;73413;-73
2022/04/05 12:19:55;;;;;;;6.30;2.80;;;;;;;7.76;95.34;99626.00;105636;1273;61361;-71
2022/04/05 12:22:21;;;;;;;8.30;3.50;;;;;;;7.75;95.63;99625.91;105330;1273;60783;-72
2022/04/05 12:24:53;;;;;;;9.10;3.70;;;;;;;7.78;96.15;99629.89;105340;1273;74656;-70